createdAt,value
2022-10-03T00:02:49.941Z,9.73
2022-10-03T00:08:21.846Z,9.68
2022-10-03T00:14:08.271Z,9.64
2022-10-03T00:19:48.203Z,9.61
2022-10-03T00:24:55.618Z,9.58
2022-10-03T00:30:02.207Z,9.53
2022-10-03T00:35:20.130Z,9.47
2022-10-03T00:40:33.698Z,9.42
2022-10-03T00:45:38.606Z,9.35
2022-10-03T00:50:40.031Z,9.30
2022-10-03T00:56:07.670Z,9.28
2022-10-03T01:01:36.156Z,9.22
2022-10-03T01:06:47.474Z,9.18
2022-10-03T01:12:23.237Z,9.16
2022-10-03T01:17:53.965Z,9.12
2022-10-03T01:23:17.623Z,9.03
2022-10-03T01:28:46.644Z,9.06
2022-10-03T01:34:01.092Z,8.98
2022-10-03T01:39:14.978Z,8.96
2022-10-03T01:44:37.949Z,8.93
2022-10-03T01:49:48.566Z,8.91
2022-10-03T01:55:11.982Z,8.92
2022-10-03T02:00:16.063Z,8.95
2022-10-03T02:05:48.344Z,8.97
2022-10-03T02:10:55.769Z,8.94
2022-10-03T02:16:33.637Z,8.90
2022-10-03T02:21:47.432Z,8.91
2022-10-03T02:27:27.459Z,8.98
2022-10-03T02:32:53.697Z,9.04
2022-10-03T02:38:21.412Z,9.08
2022-10-03T02:43:42.739Z,9.09
2022-10-03T02:49:21.824Z,9.07
2022-10-03T02:54:50.761Z,8.99
2022-10-03T03:00:06.665Z,8.94
2022-10-03T03:05:41.940Z,8.89
2022-10-03T03:11:09.350Z,8.83
2022-10-03T03:16:53.110Z,8.76
2022-10-03T03:22:14.400Z,8.72
2022-10-03T03:27:35.127Z,8.63
2022-10-03T03:32:48.696Z,8.59
2022-10-03T03:38:11.975Z,8.50
2022-10-03T03:43:39.379Z,8.53
2022-10-03T03:49:09.092Z,8.46
2022-10-03T03:54:34.438Z,8.42
2022-10-03T04:00:04.443Z,8.40
2022-10-03T04:05:14.950Z,8.35
2022-10-03T04:11:11.915Z,8.31
2022-10-03T04:16:50.237Z,8.28
2022-10-03T04:22:19.912Z,8.26
2022-10-03T04:27:54.414Z,8.23
2022-10-03T04:33:18.356Z,8.17
2022-10-03T04:38:44.635Z,8.14
2022-10-03T04:44:16.734Z,8.09
2022-10-03T04:49:39.952Z,8.06
2022-10-03T04:55:00.080Z,8.06
2022-10-03T05:00:23.656Z,8.10
2022-10-03T05:05:51.540Z,8.10
2022-10-03T05:11:08.052Z,8.20
2022-10-03T05:16:19.166Z,8.33
2022-10-03T05:21:32.982Z,8.47
2022-10-03T05:26:46.782Z,8.64
2022-10-03T05:32:12.589Z,8.79
2022-10-03T05:37:33.110Z,8.95
2022-10-03T05:42:47.883Z,9.08
2022-10-03T05:48:09.380Z,9.18
2022-10-03T05:53:35.215Z,9.32
2022-10-03T05:58:47.332Z,9.42
2022-10-03T06:04:09.840Z,9.49
2022-10-03T06:09:37.659Z,9.55
2022-10-03T06:14:57.817Z,9.55
2022-10-03T06:20:10.867Z,9.55
2022-10-03T06:25:53.323Z,9.65
2022-10-03T06:31:06.542Z,9.80
2022-10-03T06:36:36.161Z,9.96
2022-10-03T06:42:04.125Z,10.14
2022-10-03T06:47:18.571Z,10.32
2022-10-03T06:52:25.691Z,10.49
2022-10-03T06:57:34.246Z,10.67
2022-10-03T07:03:23.457Z,10.83
2022-10-03T07:08:56.098Z,10.98
2022-10-03T07:14:19.541Z,11.03
2022-10-03T07:19:39.798Z,11.11
2022-10-03T07:25:12.865Z,11.23
2022-10-03T07:30:24.426Z,11.40
2022-10-03T07:35:59.696Z,11.57
2022-10-03T07:41:21.340Z,11.88
2022-10-03T07:46:37.658Z,12.17
2022-10-03T07:51:52.360Z,12.46
2022-10-03T07:57:04.063Z,12.63
2022-10-03T08:02:33.239Z,12.76
2022-10-03T08:07:53.346Z,12.92
2022-10-03T08:13:14.597Z,13.04
2022-10-03T08:18:28.111Z,13.17
2022-10-03T08:23:43.088Z,13.30
2022-10-03T08:29:08.729Z,13.45
2022-10-03T08:34:27.213Z,13.59
2022-10-03T08:40:17.108Z,13.71
2022-10-03T08:46:12.980Z,13.74
2022-10-03T08:51:42.459Z,13.89
2022-10-03T08:57:21.500Z,14.05
2022-10-03T09:03:31.578Z,14.16
2022-10-03T09:08:52.278Z,14.32
2022-10-03T09:14:11.719Z,14.42
2022-10-03T09:19:16.726Z,14.51
2022-10-03T09:24:38.102Z,14.69
2022-10-03T09:30:04.506Z,14.89
2022-10-03T09:35:20.795Z,15.05
2022-10-03T09:40:40.841Z,15.21
2022-10-03T09:46:01.710Z,15.45
2022-10-03T09:51:09.327Z,15.65
2022-10-03T09:56:25.897Z,15.80
2022-10-03T10:01:58.028Z,15.99
2022-10-03T10:07:30.170Z,16.11
2022-10-03T10:13:15.716Z,16.24
2022-10-03T10:18:41.981Z,16.28
2022-10-03T10:23:50.622Z,16.33
2022-10-03T10:29:33.152Z,16.49
2022-10-03T10:34:59.450Z,16.66
2022-10-03T10:40:38.733Z,16.90
2022-10-03T10:46:21.391Z,16.89
2022-10-03T10:51:44.722Z,16.96
2022-10-03T10:57:02.795Z,17.00
2022-10-03T11:02:16.057Z,17.08
2022-10-03T11:07:42.738Z,17.15
2022-10-03T11:12:45.282Z,17.23
2022-10-03T11:18:25.044Z,17.23
2022-10-03T11:24:04.847Z,17.23
2022-10-03T11:29:31.397Z,17.34
2022-10-03T11:34:49.426Z,17.24
2022-10-03T11:40:21.788Z,17.13
2022-10-03T11:45:29.217Z,17.21
2022-10-03T11:50:39.533Z,16.95
2022-10-03T11:55:47.069Z,17.02
2022-10-03T12:01:00.051Z,16.90
2022-10-03T12:06:47.436Z,17.03
2022-10-03T12:11:54.361Z,16.97
2022-10-03T12:17:08.222Z,17.00
2022-10-03T12:22:26.558Z,16.97
2022-10-03T12:28:00.560Z,16.89
2022-10-03T12:33:17.146Z,16.92
2022-10-03T12:38:34.893Z,16.84
2022-10-03T12:44:05.232Z,16.99
2022-10-03T12:49:38.342Z,17.12
2022-10-03T12:55:07.037Z,17.28
2022-10-03T13:00:28.199Z,17.20
2022-10-03T13:06:07.360Z,17.28
2022-10-03T13:11:37.622Z,17.10
2022-10-03T13:16:55.566Z,17.17
2022-10-03T13:22:12.271Z,17.19
2022-10-03T13:27:29.248Z,17.32
2022-10-03T13:32:33.897Z,17.33
2022-10-03T13:37:53.973Z,17.22
2022-10-03T13:42:57.697Z,17.21
2022-10-03T13:48:10.751Z,17.17
2022-10-03T13:53:16.650Z,17.08
2022-10-03T13:58:55.588Z,16.99
2022-10-03T14:04:35.660Z,17.00
2022-10-03T14:10:12.985Z,17.03
2022-10-03T14:15:41.777Z,17.01
2022-10-03T14:21:01.188Z,16.98
2022-10-03T14:26:25.326Z,16.95
2022-10-03T14:31:39.436Z,16.92
2022-10-03T14:36:54.249Z,16.90
2022-10-03T14:41:55.738Z,16.84
2022-10-03T14:47:00.590Z,16.78
2022-10-03T14:52:09.404Z,16.77
2022-10-03T14:57:47.684Z,16.78
2022-10-03T15:02:56.278Z,16.80
2022-10-03T15:07:58.028Z,16.81
2022-10-03T15:13:06.238Z,16.80
2022-10-03T15:18:15.270Z,16.74
2022-10-03T15:23:23.321Z,16.67
2022-10-03T15:28:30.285Z,16.55
2022-10-03T15:33:34.752Z,16.49
2022-10-03T15:38:41.842Z,16.46
2022-10-03T15:43:57.816Z,16.43
2022-10-03T15:49:06.032Z,16.36
2022-10-03T15:54:12.701Z,16.35
2022-10-03T15:59:27.395Z,16.36
2022-10-03T16:04:35.774Z,16.36
2022-10-03T16:10:01.521Z,16.33
2022-10-03T16:15:02.932Z,16.23
2022-10-03T16:20:19.471Z,16.12
2022-10-03T16:25:53.324Z,16.00
2022-10-03T16:31:03.128Z,15.84
2022-10-03T16:36:08.162Z,15.67
2022-10-03T16:41:19.273Z,15.50
2022-10-03T16:46:22.993Z,15.31
2022-10-03T16:51:38.521Z,15.19
2022-10-03T16:56:45.776Z,15.11
2022-10-03T17:01:55.084Z,15.06
2022-10-03T17:06:59.800Z,14.96
2022-10-03T17:12:03.132Z,14.82
2022-10-03T17:17:21.925Z,14.68
2022-10-03T17:22:32.054Z,14.52
2022-10-03T17:27:39.954Z,14.44
2022-10-03T17:32:44.930Z,14.38
2022-10-03T17:38:37.558Z,14.27
2022-10-03T17:43:46.555Z,14.06
2022-10-03T17:49:19.475Z,13.92
2022-10-03T17:54:26.497Z,13.80
2022-10-03T17:59:32.654Z,13.66
2022-10-03T18:04:42.086Z,13.53
2022-10-03T18:09:48.042Z,13.39
2022-10-03T18:15:16.214Z,13.31
2022-10-03T18:20:33.254Z,13.23
2022-10-03T18:26:20.586Z,13.18
2022-10-03T18:31:22.534Z,13.17
2022-10-03T18:36:49.320Z,13.17
2022-10-03T18:41:59.664Z,13.16
2022-10-03T18:47:21.797Z,13.14
2022-10-03T18:52:33.569Z,13.12
2022-10-03T18:57:51.076Z,13.12
2022-10-03T19:02:57.191Z,13.14
2022-10-03T19:08:17.368Z,13.12
2022-10-03T19:13:48.452Z,13.12
2022-10-03T19:19:15.352Z,13.13
2022-10-03T19:24:39.811Z,13.15
2022-10-03T19:29:47.033Z,13.21
2022-10-03T19:34:50.725Z,13.17
2022-10-03T19:39:52.665Z,13.11
2022-10-03T19:44:59.611Z,13.05
2022-10-03T19:50:31.965Z,12.97
2022-10-03T19:55:37.260Z,12.93
2022-10-03T20:00:40.415Z,12.96
2022-10-03T20:06:02.070Z,13.05
2022-10-03T20:11:16.459Z,13.07
2022-10-03T20:16:25.255Z,13.11
2022-10-03T20:21:29.400Z,13.18
2022-10-03T20:26:43.999Z,13.22
2022-10-03T20:31:46.754Z,13.22
2022-10-03T20:36:54.595Z,13.29
2022-10-03T20:42:04.626Z,13.30
2022-10-03T20:47:11.353Z,13.29
2022-10-03T20:52:19.286Z,13.23
2022-10-03T20:57:26.713Z,13.28
2022-10-03T21:02:31.385Z,13.33
2022-10-03T21:07:43.048Z,13.36
2022-10-03T21:12:51.425Z,13.37
2022-10-03T21:17:56.661Z,13.38
2022-10-03T21:23:03.550Z,13.38
2022-10-03T21:28:18.291Z,13.41
2022-10-03T21:33:24.887Z,13.43
2022-10-03T21:38:32.882Z,13.45
2022-10-03T21:43:56.610Z,13.43
2022-10-03T21:49:21.045Z,13.40
2022-10-03T21:54:25.360Z,13.38
2022-10-03T21:59:29.702Z,13.37
2022-10-03T22:04:40.377Z,13.39
2022-10-03T22:09:51.080Z,13.39
2022-10-03T22:15:18.685Z,13.39
2022-10-03T22:20:26.138Z,13.43
2022-10-03T22:25:40.204Z,13.46
2022-10-03T22:30:52.039Z,13.41
2022-10-03T22:35:55.722Z,13.46
2022-10-03T22:41:01.118Z,13.46
2022-10-03T22:46:04.959Z,13.48
2022-10-03T22:51:09.635Z,13.49
2022-10-03T22:56:48.375Z,13.52
2022-10-03T23:01:52.827Z,13.53
2022-10-03T23:07:19.361Z,13.54
2022-10-03T23:12:24.486Z,13.54
2022-10-03T23:17:56.707Z,13.56
2022-10-03T23:23:02.627Z,13.56
2022-10-03T23:28:18.207Z,13.55
2022-10-03T23:33:32.417Z,13.54
2022-10-03T23:38:33.813Z,13.54
2022-10-03T23:43:46.158Z,13.52
2022-10-03T23:48:52.057Z,13.50
2022-10-03T23:54:02.467Z,13.47
2022-10-03T23:59:03.888Z,13.43
